Latest Weather Observations for Cape Borda

IDS60801

Issued at 6:35 am CST Wednesday 30 July 2014 (issued every 30 minutes, with the page automatically refreshed every 10 minutes)

About weather observations | Map of weather stations | Latest weather observations for SA | Other Formats
Station Details ID: 022823 Name: CAPE BORDA Lat: -35.75 Lon: 136.60 Height: 158.0 m
Data from the previous 72 hours. | See also: Recent months at Cape Borda
Date/Time
CST
Temp
°C
App
Temp
°C
Dew
Point
Rel
Hum
%
Delta-T
°C
Wind Press
QNH
hPa
Press
MSL
hPa
Rain
since 9 am
mm
Dir
 
Spd
km/h
Gust
km/h
Spd
kts
Gust
kts
30/06:30am 14.4 7.0 10.0 75 2.3 WNW 39 56 21 30 1015.5 - 0.0
30/06:28am 14.4 7.4 9.8 74 2.4 WNW 37 56 20 30 1015.5 - 0.0
30/06:00am 14.4 7.2 9.1 70 2.7 WNW 37 48 20 26 1015.3 1015.4 0.0
30/05:31am 14.4 7.2 9.1 70 2.7 WNW 37 56 20 30 1015.3 - 0.0
30/05:30am 14.4 6.8 8.9 69 2.8 WNW 39 56 21 30 1015.3 - 0.0
30/05:05am 14.3 7.4 8.8 69 2.8 WNW 35 57 19 31 1015.1 - 0.0
30/05:00am 14.4 7.7 9.8 74 2.4 WNW 35 48 19 26 1015.1 - 0.0
30/04:46am 14.2 7.5 9.8 75 2.3 WNW 35 54 19 29 1015.0 - 0.0
30/04:30am 14.2 8.1 9.6 74 2.4 WNW 32 43 17 23 1015.0 - 0.0
30/04:00am 14.2 7.2 9.8 75 2.3 WNW 37 50 20 27 1015.1 - 0.0
30/03:49am 14.0 7.5 10.4 79 1.9 WNW 35 54 19 29 1015.1 - 0.0
30/03:30am 14.0 7.6 10.6 80 1.8 WNW 35 52 19 28 1015.3 - 0.0
30/03:14am 13.8 7.7 11.6 86 1.2 WNW 35 54 19 29 1015.3 - 0.0
30/03:00am 13.7 8.0 11.8 88 1.0 WNW 33 50 18 27 1015.4 1015.5 0.0
30/02:59am 13.7 8.2 11.8 88 1.0 WNW 32 50 17 27 1015.4 - 0.0
30/02:30am 14.5 8.2 11.1 80 1.8 W 35 50 19 27 1015.7 - 0.0
30/02:00am 14.5 8.6 11.3 81 1.7 WNW 33 48 18 26 1015.8 - 0.0
30/01:30am 14.4 9.0 11.0 80 1.8 WNW 30 39 16 21 1015.9 - 0.0
30/01:06am 14.5 8.8 11.3 81 1.7 WNW 32 50 17 27 1016.0 - 0.0
30/01:00am 14.6 8.9 11.2 80 1.8 WNW 32 41 17 22 1016.0 - 0.0
30/12:38am 14.4 8.3 11.6 83 1.5 W 35 57 19 31 1016.1 - 0.0
30/12:30am 14.4 7.5 11.6 83 1.5 WNW 39 54 21 29 1016.2 - 0.0
30/12:20am 14.2 7.7 11.8 85 1.3 WNW 37 56 20 30 1016.1 - 0.0
30/12:00am 14.5 9.0 11.7 83 1.5 WNW 32 43 17 23 1016.2 1016.3 0.0
 
Date/Time
CST
Temp
°C
App
Temp
°C
Dew
Point
Rel
Hum
%
Delta-T
°C
Wind Press
QNH
hPa
Press
MSL
hPa
Rain
since 9 am
mm
Dir
 
Spd
km/h
Gust
km/h
Spd
kts
Gust
kts
29/11:30pm 14.4 8.8 12.0 85 1.3 W 33 52 18 28 1016.3 - 0.0
29/11:21pm 14.3 8.9 12.1 87 1.2 WNW 32 52 17 28 1016.4 - 0.0
29/11:00pm 14.4 8.3 11.8 84 1.4 W 35 50 19 27 1016.4 - 0.0
29/10:49pm 14.3 8.2 11.7 84 1.4 WNW 35 57 19 31 1016.4 - 0.0
29/10:30pm 13.9 7.7 11.3 84 1.4 W 35 46 19 25 1016.4 - 0.0
29/10:14pm 14.4 8.4 12.2 87 1.2 W 35 54 19 29 1016.4 - 0.0
29/10:00pm 14.4 8.4 12.0 85 1.3 W 35 50 19 27 1016.6 - 0.0
29/09:32pm 14.4 8.4 12.2 87 1.2 W 35 54 19 29 1016.4 - 0.0
29/09:30pm 14.4 7.9 11.8 84 1.4 W 37 54 20 29 1016.4 - 0.0
29/09:18pm 14.0 7.6 12.0 88 1.1 W 37 56 20 30 1016.4 - 0.0
29/09:00pm 14.4 7.9 11.8 84 1.4 W 37 50 20 27 1016.2 1016.3 0.0
29/08:43pm 14.5 8.8 11.9 84 1.4 WNW 33 56 18 30 1016.0 - 0.0
29/08:30pm 14.5 8.8 11.7 83 1.5 WNW 33 46 18 25 1015.9 - 0.0
29/08:00pm 14.3 8.4 11.1 81 1.7 WNW 33 52 18 28 1015.8 - 0.0
29/07:30pm 14.5 7.9 11.5 82 1.6 W 37 56 20 30 1015.5 - 0.0
29/07:02pm 14.6 7.6 11.4 81 1.7 W 39 59 21 32 1015.3 - 0.0
29/07:00pm 14.5 7.6 11.7 83 1.5 W 39 52 21 28 1015.3 - 0.0
29/06:46pm 14.6 7.7 11.6 82 1.6 W 39 57 21 31 1015.1 - 0.0
29/06:30pm 14.5 7.6 11.7 83 1.5 W 39 56 21 30 1015.0 - 0.0
29/06:00pm 14.6 7.5 11.0 79 1.9 W 39 63 21 34 1014.7 1014.8 0.0
29/05:42pm 14.6 7.6 11.4 81 1.7 W 39 57 21 31 1014.6 - 0.0
29/05:30pm 14.6 6.9 11.4 81 1.7 W 43 59 23 32 1014.5 - 0.0
29/05:00pm 14.7 7.4 11.7 82 1.6 W 41 61 22 33 1014.3 - 0.0
29/04:30pm 15.0 7.9 12.1 83 1.6 WNW 41 54 22 29 1013.8 - 0.0
29/04:06pm 15.4 8.7 12.3 82 1.7 W 39 59 21 32 1013.7 - 0.0
29/04:00pm 15.2 8.4 12.1 82 1.7 W 39 56 21 30 1013.6 - 0.0
29/03:32pm 15.0 8.4 12.5 85 1.4 W 39 57 21 31 1013.5 - 0.0
29/03:30pm 14.9 7.9 12.4 85 1.4 W 41 57 22 31 1013.4 - 0.0
29/03:00pm 15.5 7.9 11.8 78 2.0 W 43 65 23 35 1013.3 1013.5 0.0
29/02:35pm 15.4 7.6 11.9 79 1.9 WNW 44 65 24 35 1013.2 - 0.0
29/02:30pm 15.6 8.1 12.1 80 1.9 WNW 43 59 23 32 1013.2 - 0.0
29/02:01pm 15.2 7.3 11.5 78 2.0 W 44 63 24 34 1013.1 - 0.0
29/02:00pm 15.2 6.9 11.3 77 2.1 W 46 63 25 34 1013.0 - 0.0
29/01:32pm 15.4 8.1 11.7 78 2.0 W 41 70 22 38 1013.0 - 0.0
29/01:30pm 15.2 8.1 12.1 82 1.7 W 41 57 22 31 1013.1 - 0.0
29/01:00pm 15.6 7.8 11.7 77 2.1 W 44 63 24 34 1013.3 - 0.0
29/12:30pm 15.3 7.8 12.0 81 1.8 WNW 43 61 23 33 1013.5 - 0.0
29/12:00pm 15.5 8.3 11.8 78 2.0 WNW 41 59 22 32 1013.7 1013.9 0.0
29/11:35am 15.8 8.2 11.8 77 2.2 WNW 43 65 23 35 1013.7 - 0.0
29/11:30am 16.1 9.0 12.1 77 2.2 WNW 41 57 22 31 1013.7 - 0.0
29/11:00am 15.2 7.6 11.7 79 1.9 WNW 43 61 23 33 1013.9 - 0.0
29/10:35am 15.5 8.7 11.8 78 2.0 WNW 39 57 21 31 1013.8 - 0.0
29/10:30am 15.6 8.1 12.1 80 1.9 WNW 43 59 23 32 1013.8 - 0.0
29/10:19am 15.4 8.1 11.7 78 2.0 WNW 41 59 22 32 1013.8 - 0.0
29/10:00am 15.0 7.7 11.5 79 1.9 WNW 41 57 22 31 1013.7 - 0.0
29/09:35am 14.8 6.9 11.3 79 1.9 WNW 44 63 24 34 1013.5 - 0.0
29/09:30am 14.9 6.7 11.6 80 1.8 WNW 46 63 25 34 1013.5 - 0.0
29/09:10am 14.6 7.4 11.8 83 1.5 WNW 41 59 22 32 1013.2 - 0.0
29/09:00am 14.6 6.7 11.6 82 1.6 WNW 44 59 24 32 1013.3 1013.5 0.6
29/08:30am 14.5 7.6 11.5 82 1.6 WNW 39 56 21 30 1013.2 - 0.6
29/08:00am 14.4 7.5 11.6 83 1.5 WNW 39 54 21 29 1013.0 - 0.6
29/07:31am 14.0 7.4 12.5 91 0.8 WNW 39 61 21 33 1012.7 - 0.4
29/07:30am 14.0 7.8 12.7 92 0.7 WNW 37 50 20 27 1012.7 - 0.4
29/07:10am 14.1 8.2 12.3 89 1.0 WNW 35 61 19 33 1012.6 - 0.4
29/07:00am 14.3 8.2 11.9 85 1.3 WNW 35 50 19 27 1012.6 - 0.4
29/06:42am 14.2 6.5 11.6 84 1.4 WNW 43 63 23 34 1012.5 - 0.4
29/06:30am 14.3 7.1 11.9 85 1.3 WNW 41 56 22 30 1012.4 - 0.4
29/06:00am 14.0 7.5 11.8 86 1.2 WNW 37 52 20 28 1012.1 1012.3 0.4
29/05:30am 13.8 7.0 11.8 88 1.1 W 39 57 21 31 1012.0 - 0.4
29/05:04am 13.5 5.8 12.0 91 0.8 WNW 44 65 24 35 1011.8 - 0.4
29/05:00am 13.6 6.2 12.3 92 0.7 WNW 43 57 23 31 1011.7 - 0.4
29/04:32am 14.1 7.7 12.1 88 1.1 WNW 37 56 20 30 1011.7 - 0.0
29/04:30am 14.0 7.3 12.2 89 1.0 WNW 39 56 21 30 1011.7 - 0.0
29/04:00am 14.3 6.4 11.3 82 1.6 WNW 44 63 24 34 1012.1 - 0.0
29/03:46am 13.8 5.9 11.4 85 1.3 WNW 44 63 24 34 1012.1 - 0.0
29/03:30am 14.2 6.5 11.4 83 1.5 WNW 43 59 23 32 1012.2 - 0.0
29/03:00am 14.3 6.9 11.1 81 1.7 NW 41 61 22 33 1012.1 1012.3 0.0
29/02:30am 14.3 7.3 11.1 81 1.7 NW 39 57 21 31 1012.1 - 0.0
29/02:02am 14.3 6.8 10.7 79 1.9 NW 41 65 22 35 1012.0 - 0.0
29/02:00am 14.2 7.1 10.8 80 1.8 NW 39 56 21 30 1012.0 - 0.0
29/01:30am 14.3 7.0 10.3 77 2.1 NW 39 57 21 31 1012.1 - 0.0
29/01:04am 14.4 7.2 10.6 78 2.0 WNW 39 57 21 31 1012.3 - 0.0
29/01:00am 14.3 7.1 10.5 78 2.0 WNW 39 56 21 30 1012.5 - 0.0
29/12:30am 14.5 7.9 9.9 74 2.4 NW 35 57 19 31 1012.7 - 0.0
29/12:16am 14.5 6.9 10.5 77 2.1 WNW 41 59 22 32 1013.1 - 0.0
29/12:00am 14.4 6.0 9.8 74 2.4 WNW 44 61 24 33 1013.2 1013.4 0.0
 
Date/Time
CST
Temp
°C
App
Temp
°C
Dew
Point
Rel
Hum
%
Delta-T
°C
Wind Press
QNH
hPa
Press
MSL
hPa
Rain
since 9 am
mm
Dir
 
Spd
km/h
Gust
km/h
Spd
kts
Gust
kts
28/11:30pm 14.4 7.2 10.4 77 2.1 WNW 39 59 21 32 1013.4 - 0.0
28/11:00pm 14.5 7.5 11.1 80 1.8 NW 39 61 21 33 1013.4 - 0.0
28/10:35pm 14.6 8.2 10.8 78 2.0 NW 35 56 19 30 1013.6 - 0.0
28/10:30pm 14.7 8.5 11.4 80 1.8 NW 35 52 19 28 1013.7 - 0.0
28/10:15pm 14.6 8.8 11.6 82 1.6 NW 33 52 18 28 1013.7 - 0.0
28/10:00pm 14.6 8.8 11.6 82 1.6 NW 33 50 18 27 1013.8 - 0.0
28/09:30pm 14.6 8.3 11.2 80 1.8 NW 35 54 19 29 1013.8 - 0.0
28/09:01pm 14.7 8.8 11.0 78 2.0 NW 33 52 18 28 1013.9 - 0.0
28/09:00pm 14.7 8.3 10.8 77 2.1 NW 35 52 19 28 1013.9 1014.1 0.0
28/08:30pm 14.7 8.3 10.8 77 2.1 NW 35 56 19 30 1014.2 - 0.0
28/08:00pm 14.5 7.3 10.5 77 2.1 NW 39 57 21 31 1014.0 - 0.0
28/07:30pm 14.6 8.6 10.8 78 2.0 NW 33 54 18 29 1013.9 - 0.0
28/07:08pm 14.6 8.1 10.4 76 2.2 NW 35 54 19 29 1013.7 - 0.0
28/07:00pm 14.5 8.0 10.3 76 2.2 NW 35 50 19 27 1013.6 - 0.0
28/06:31pm 14.5 8.4 11.7 83 1.5 NW 35 54 19 29 1013.5 - 0.0
28/06:30pm 14.5 8.4 11.7 83 1.5 NW 35 48 19 26 1013.5 - 0.0
28/06:00pm 14.3 7.1 11.9 85 1.3 NW 41 56 22 30 1013.4 1013.6 0.0
28/05:30pm 14.2 8.2 12.2 88 1.1 NW 35 50 19 27 1013.4 - 0.0
28/05:00pm 14.2 8.2 12.0 87 1.2 NW 35 48 19 26 1013.3 - 0.0
28/04:30pm 14.6 9.1 12.0 84 1.4 NW 32 46 17 25 1013.4 - 0.0
28/04:00pm 15.0 9.4 12.1 83 1.6 NW 33 48 18 26 1013.5 - 0.0
28/03:30pm 14.6 8.5 11.8 83 1.5 NW 35 50 19 27 1013.6 - 0.0
28/03:00pm 14.9 10.0 11.2 78 2.0 NW 28 41 15 22 1013.6 1013.8 0.0
28/02:30pm 14.3 8.6 11.3 82 1.6 NW 32 43 17 23 1013.6 - 0.0
28/02:00pm 14.9 9.1 11.6 80 1.8 NW 33 50 18 27 1013.7 - 0.0
28/01:30pm 15.1 9.3 11.6 79 1.9 NW 33 46 18 25 1014.0 - 0.0
28/01:00pm 15.6 10.0 11.5 76 2.2 NW 32 43 17 23 1014.6 - 0.0
28/12:30pm 15.5 9.6 11.2 75 2.3 NW 33 46 18 25 1015.3 - 0.0
28/12:00pm 15.7 9.7 10.8 72 2.6 NW 33 46 18 25 1015.8 1015.9 0.0
28/11:30am 15.0 9.9 10.7 75 2.3 NW 28 39 15 21 1016.2 - 0.0
28/11:00am 14.8 9.4 10.9 77 2.1 NW 30 44 16 24 1016.3 - 0.0
28/10:30am 14.9 9.0 10.4 74 2.4 NW 32 43 17 23 1016.4 - 0.0
28/10:00am 14.7 9.7 11.0 78 2.0 NW 28 37 15 20 1016.5 - 0.0
28/09:30am 14.6 9.5 10.6 77 2.1 NW 28 39 15 21 1016.3 - 0.0
28/09:00am 14.4 10.0 10.4 77 2.1 NW 24 33 13 18 1016.5 1016.7 0.0
28/08:30am 13.7 8.8 9.8 77 2.0 WNW 26 35 14 19 1016.5 - 0.0
28/08:00am 13.4 8.4 9.7 78 1.9 WNW 26 33 14 18 1016.5 - 0.0
28/07:30am 13.1 8.4 9.4 78 1.9 WNW 24 33 13 18 1016.3 - 0.0
28/07:00am 12.9 7.6 8.5 74 2.2 WNW 26 37 14 20 1015.9 - 0.0
28/06:30am 13.0 8.3 9.1 77 2.0 WNW 24 35 13 19 1015.8 - 0.0
28/06:00am 12.9 8.2 9.2 78 1.9 WNW 24 32 13 17 1015.7 1015.8 0.0
28/05:30am 12.8 8.0 8.8 76 2.0 WNW 24 32 13 17 1015.6 - 0.0
28/05:00am 12.8 7.8 8.2 73 2.3 WNW 24 35 13 19 1015.7 - 0.0
28/04:30am 12.9 8.1 9.0 77 2.0 WNW 24 32 13 17 1015.8 - 0.0
28/04:00am 13.0 8.6 8.8 75 2.1 WNW 22 33 12 18 1016.1 - 0.0
28/03:30am 13.4 8.2 8.9 74 2.3 W 26 37 14 20 1016.2 - 0.0
28/03:00am 13.5 8.9 9.6 77 2.0 WNW 24 35 13 19 1016.1 1016.2 0.0
28/02:30am 13.4 9.0 10.3 81 1.6 W 24 33 13 18 1016.3 - 0.0
28/02:00am 13.4 9.6 11.1 86 1.2 WNW 22 30 12 16 1016.3 - 0.0
28/01:30am 13.2 9.2 10.5 84 1.4 W 22 32 12 17 1016.3 - 0.0
28/01:00am 13.2 9.3 10.7 85 1.3 WNW 22 32 12 17 1016.5 - 0.0
28/12:30am 13.5 10.3 11.8 89 0.9 WNW 20 28 11 15 1016.6 - 0.0
28/12:00am 13.7 10.8 12.2 91 0.8 WNW 19 26 10 14 1017.0 1017.2 0.0
 
Date/Time
CST
Temp
°C
App
Temp
°C
Dew
Point
Rel
Hum
%
Delta-T
°C
Wind Press
QNH
hPa
Press
MSL
hPa
Rain
since 9 am
mm
Dir
 
Spd
km/h
Gust
km/h
Spd
kts
Gust
kts
27/11:30pm 14.0 11.1 12.9 93 0.6 W 20 30 11 16 1017.1 - 0.0
27/11:00pm 14.1 11.3 13.2 94 0.5 WNW 20 28 11 15 1017.1 - 0.0
27/10:30pm 14.2 11.7 13.5 96 0.4 WNW 19 26 10 14 1017.1 - 0.0
27/10:00pm 14.3 11.8 13.4 94 0.5 NW 19 26 10 14 1017.2 - 0.0
27/09:30pm 14.4 10.8 13.1 92 0.7 NW 24 32 13 17 1017.3 - 0.0
27/09:00pm 14.4 11.4 12.6 89 1.0 NW 20 32 11 17 1017.4 1017.6 0.0
27/08:30pm 14.4 10.9 12.2 87 1.2 NW 22 30 12 16 1017.3 - 0.0
27/08:00pm 14.3 10.3 11.7 84 1.4 NW 24 32 13 17 1017.4 - 0.0
27/07:30pm 14.3 10.5 11.3 82 1.6 NW 22 32 12 17 1017.3 - 0.0
27/07:00pm 14.5 9.7 10.3 76 2.2 NW 26 35 14 19 1017.3 - 0.0
27/06:30pm 14.4 9.9 10.0 75 2.3 NNW 24 35 13 19 1017.3 - 0.0
27/06:00pm 14.3 10.7 10.5 78 2.0 NNW 20 28 11 15 1017.2 1017.4 0.0
27/05:30pm 14.5 11.1 10.5 77 2.1 NNW 19 24 10 13 1017.1 - 0.0
27/05:00pm 15.2 11.4 9.9 70 2.8 NNW 20 28 11 15 1016.7 - 0.0
27/04:30pm 15.5 11.8 10.0 70 2.9 NNW 20 28 11 15 1016.4 - 0.0
27/04:00pm 15.7 11.0 9.4 66 3.3 NNW 24 33 13 18 1016.4 - 0.0
27/03:30pm 15.2 10.5 9.4 68 3.0 NNW 24 33 13 18 1016.4 - 0.0
27/03:00pm 15.4 9.5 9.2 66 3.2 N 30 43 16 23 1016.4 1016.6 0.0
27/02:30pm 15.0 9.8 9.0 67 3.1 NNW 26 39 14 21 1016.7 - 0.0
27/02:00pm 15.9 11.1 8.9 63 3.6 NNW 24 37 13 20 1017.0 - 0.0
27/01:30pm 14.9 9.8 9.3 69 2.9 N 26 33 14 18 1017.1 - 0.0
27/01:00pm 14.6 9.5 9.2 70 2.8 NNW 26 35 14 19 1017.7 - 0.0
27/12:30pm 14.8 9.7 9.2 69 2.9 N 26 37 14 20 1018.3 - 0.0
27/12:00pm 14.8 8.4 8.7 67 3.1 N 32 44 17 24 1018.8 1019.0 0.0
27/11:30am 14.7 8.9 9.3 70 2.8 N 30 39 16 21 1019.0 - 0.0
27/11:00am 15.6 10.4 9.0 65 3.4 N 26 43 14 23 1019.3 - 0.0
27/10:30am 14.8 9.1 8.5 66 3.2 N 28 41 15 22 1019.7 - 0.0
27/10:00am 14.4 8.5 8.9 69 2.8 N 30 43 16 23 1020.0 - 0.0
27/09:30am 13.6 8.1 9.1 74 2.3 N 28 39 15 21 1019.9 - 0.0
27/09:00am 13.6 9.1 9.9 78 1.9 N 24 35 13 19 1020.1 1020.3 0.0
27/08:30am 13.4 8.0 9.5 77 2.0 N 28 41 15 22 1020.2 - 0.0
27/08:00am 13.4 8.3 9.3 76 2.1 N 26 37 14 20 1020.4 - 0.0
27/07:30am 13.2 7.9 9.7 79 1.8 N 28 39 15 21 1020.5 - 0.0
27/07:00am 13.2 8.3 9.9 80 1.7 N 26 37 14 20 1020.3 - 0.0

Other Formats:

Comma delimited format used in spreadsheet applications
http://www.bom.gov.au/fwo/IDS60801/IDS60801.95805.axf

JavaScript Object Notation format (JSON) in row-major order
http://www.bom.gov.au/fwo/IDS60801/IDS60801.95805.json